Time;durP1;ratioP1;P1;durP2;ratioP2;P2;SDS_P1;SDS_P2;PMS_P1;PMS_P2;Temp;Humidity;BMP_temperature;BMP_pressure;BME280_temperature;BME280_humidity;BME280_pressure;Samples;Min_cycle;Max_cycle;Signal;HPM_P1;HPM_P2
2022/09/19 00:00:41;;;;;;;16.40;2.47;;;10.80;99.90;;;;;;5053390;28;20366;-46
2022/09/19 00:03:07;;;;;;;9.32;2.00;;;10.70;99.90;;;;;;5052945;28;20032;-47
2022/09/19 00:05:33;;;;;;;18.52;2.78;;;10.70;99.90;;;;;;5053167;28;20059;-48
2022/09/19 00:07:59;;;;;;;14.57;2.35;;;10.90;99.90;;;;;;5052786;28;20033;-47
2022/09/19 00:10:27;;;;;;;11.40;2.13;;;10.60;99.90;;;;;;5052935;28;20045;-48
2022/09/19 00:12:55;;;;;;;13.02;2.30;;;10.90;99.90;;;;;;5034921;28;20044;-48
2022/09/19 00:15:22;;;;;;;12.63;1.95;;;10.80;99.90;;;;;;5053149;28;20041;-44
2022/09/19 00:17:49;;;;;;;14.52;2.20;;;10.80;99.90;;;;;;5052903;28;20053;-47
2022/09/19 00:20:16;;;;;;;14.30;2.25;;;10.70;99.90;;;;;;5052959;28;20084;-47
2022/09/19 00:24:45;;;;;;;12.40;2.35;;;10.60;99.90;;;;;;5034645;28;20047;-49
2022/09/19 00:25:28;;;;;;;11.60;1.95;;;10.70;99.90;;;;;;5047985;28;20099;-46
2022/09/19 00:27:54;;;;;;;12.77;2.28;;;10.50;99.90;;;;;;5049884;28;20083;-46
2022/09/19 00:30:20;;;;;;;13.32;1.83;;;10.50;99.90;;;;;;5052450;28;20037;-49
2022/09/19 00:32:46;;;;;;;9.63;1.77;;;10.40;99.90;;;;;;5052194;28;20052;-45
2022/09/19 00:35:12;;;;;;;18.30;2.30;;;10.80;99.90;;;;;;5052678;28;20044;-46
2022/09/19 00:37:38;;;;;;;9.68;1.65;;;10.50;99.90;;;;;;5052718;28;20055;-45
2022/09/19 00:40:05;;;;;;;13.60;1.88;;;10.30;99.90;;;;;;5052290;28;20461;-44
2022/09/19 00:42:30;;;;;;;11.88;1.60;;;10.40;99.90;;;;;;5052436;28;20427;-45
2022/09/19 00:45:02;;;;;;;11.60;1.67;;;10.60;99.90;;;;;;5052539;28;20041;-46
2022/09/19 00:47:50;;;;;;;12.68;1.83;;;10.40;99.90;;;;;;5052559;28;20101;-44
2022/09/19 00:50:26;;;;;;;12.57;2.08;;;10.50;99.90;;;;;;5052023;28;20072;-46
2022/09/19 00:53:07;;;;;;;13.57;2.63;;;10.60;99.90;;;;;;5051434;28;20065;-47
2022/09/19 00:55:33;;;;;;;11.90;1.52;;;10.40;99.90;;;;;;5051184;28;20395;-45
2022/09/19 00:58:24;;;;;;;11.63;1.80;;;10.30;99.90;;;;;;5052264;28;20033;-46
2022/09/19 01:00:49;;;;;;;21.55;2.20;;;10.40;99.90;;;;;;5052397;28;20111;-45
2022/09/19 01:03:15;;;;;;;12.23;1.92;;;10.20;99.90;;;;;;5051660;28;20041;-46
2022/09/19 01:06:01;;;;;;;12.13;2.03;;;10.30;99.90;;;;;;5051862;28;20063;-48
2022/09/19 01:08:59;;;;;;;10.57;1.42;;;10.20;99.90;;;;;;5051501;28;20041;-45
2022/09/19 01:11:37;;;;;;;9.90;1.67;;;10.30;99.90;;;;;;5051576;28;20041;-45
2022/09/19 01:14:25;;;;;;;9.95;1.75;;;10.00;99.90;;;;;;5051963;28;20456;-47
2022/09/19 01:17:04;;;;;;;15.40;2.10;;;10.10;99.90;;;;;;5050894;28;20124;-44
2022/09/19 01:19:59;;;;;;;15.95;1.85;;;10.00;99.90;;;;;;5051581;28;20045;-45
2022/09/19 01:22:34;;;;;;;9.20;1.40;;;10.10;99.90;;;;;;5051490;28;20052;-45
2022/09/19 01:25:31;;;;;;;10.45;1.45;;;10.30;99.90;;;;;;5051396;28;20041;-45
2022/09/19 01:28:36;;;;;;;14.88;1.90;;;10.20;99.90;;;;;;5051152;28;20075;-45
2022/09/19 01:31:17;;;;;;;21.13;2.17;;;10.30;99.90;;;;;;5051810;28;20029;-44
2022/09/19 01:33:53;;;;;;;14.20;1.83;;;10.30;99.90;;;;;;5051661;28;20044;-45
2022/09/19 01:36:23;;;;;;;13.25;1.70;;;10.70;99.90;;;;;;5052005;28;20494;-44
2022/09/19 01:38:51;;;;;;;12.25;1.90;;;10.40;99.90;;;;;;5051938;28;20476;-44
2022/09/19 01:41:19;;;;;;;11.25;1.50;;;10.50;99.90;;;;;;5051417;28;20037;-45
2022/09/19 01:43:45;;;;;;;10.18;1.60;;;10.60;99.90;;;;;;5051264;28;20064;-45
2022/09/19 01:46:32;;;;;;;11.30;1.75;;;10.40;99.90;;;;;;5044504;28;20484;-45
2022/09/19 01:49:11;;;;;;;13.98;1.42;;;10.40;99.90;;;;;;5051500;28;20480;-45
2022/09/19 01:51:44;;;;;;;12.07;2.05;;;10.40;99.90;;;;;;5051541;28;20029;-44
2022/09/19 01:54:38;;;;;;;11.63;1.98;;;10.40;99.90;;;;;;5051211;28;20150;-46
2022/09/19 01:57:18;;;;;;;17.77;2.67;;;10.70;99.90;;;;;;5051684;28;20045;-44
2022/09/19 02:00:06;;;;;;;10.73;1.38;;;10.60;99.90;;;;;;5051333;28;20423;-46
2022/09/19 02:03:02;;;;;;;21.00;2.70;;;10.60;99.90;;;;;;5048752;28;20476;-47
2022/09/19 02:05:36;;;;;;;14.25;2.30;;;10.40;99.90;;;;;;5051529;28;20041;-45
2022/09/19 02:08:10;;;;;;;11.88;2.08;;;10.20;99.90;;;;;;5051088;28;20094;-48
2022/09/19 02:10:39;;;;;;;;;;;10.50;99.90;;;;;;5051831;28;20456;-46
2022/09/19 02:13:08;;;;;;;16.63;2.88;;;10.10;99.90;;;;;;5049843;28;19920;-44
2022/09/19 02:15:36;;;;;;;9.10;1.65;;;10.40;99.90;;;;;;5051213;28;20048;-47
2022/09/19 02:18:10;;;;;;;13.25;1.92;;;10.40;99.90;;;;;;5050839;28;20041;-50
2022/09/19 02:20:40;;;;;;;11.65;1.80;;;10.20;99.90;;;;;;5050692;28;20039;-46
2022/09/19 02:23:11;;;;;;;10.85;1.77;;;10.50;99.90;;;;;;5050273;28;20041;-46
2022/09/19 02:25:38;;;;;;;12.77;1.73;;;10.20;99.90;;;;;;5050800;28;20036;-48
2022/09/19 02:28:12;;;;;;;12.63;1.83;;;10.40;99.90;;;;;;5050805;28;20044;-46
2022/09/19 02:30:39;;;;;;;10.57;1.83;;;10.20;99.90;;;;;;5051040;28;20063;-44
2022/09/19 02:33:06;;;;;;;20.55;2.42;;;10.40;99.90;;;;;;5049614;28;20544;-46
2022/09/19 02:36:07;;;;;;;10.93;1.63;;;10.30;99.90;;;;;;5051102;28;20365;-46
2022/09/19 02:38:39;;;;;;;11.77;2.10;;;10.10;99.90;;;;;;5051026;28;20032;-44
2022/09/19 02:41:22;;;;;;;10.75;2.85;;;10.30;99.90;;;;;;5051059;28;20407;-47
2022/09/19 02:43:54;;;;;;;17.65;2.30;;;10.30;99.90;;;;;;5049478;28;20423;-45
2022/09/19 02:46:39;;;;;;;15.23;2.10;;;10.10;99.90;;;;;;5050509;28;20419;-47
2022/09/19 02:49:14;;;;;;;10.98;1.52;;;10.30;99.90;;;;;;5050495;28;20041;-45
2022/09/19 02:51:48;;;;;;;10.98;1.95;;;10.10;99.90;;;;;;5047821;28;20044;-44
2022/09/19 02:54:26;;;;;;;15.65;2.22;;;10.30;99.90;;;;;;5050363;28;20033;-45
2022/09/19 02:56:55;;;;;;;13.73;2.15;;;10.20;99.90;;;;;;5049895;28;20476;-46
2022/09/19 02:59:29;;;;;;;10.38;2.00;;;10.20;99.90;;;;;;5050567;28;20044;-45
2022/09/19 03:02:03;;;;;;;14.60;2.20;;;10.40;99.90;;;;;;5050475;28;20041;-44
2022/09/19 03:04:42;;;;;;;15.15;1.95;;;10.10;99.90;;;;;;5050948;28;20422;-44
2022/09/19 03:07:25;;;;;;;14.73;2.17;;;10.40;99.90;;;;;;5050740;28;20045;-44
2022/09/19 03:10:08;;;;;;;15.57;1.90;;;10.30;99.90;;;;;;5050318;28;20036;-46
2022/09/19 03:12:37;;;;;;;11.68;1.77;;;10.30;99.90;;;;;;5050723;28;20060;-48
2022/09/19 03:15:05;;;;;;;14.57;2.40;;;10.20;99.90;;;;;;5050411;28;20033;-45
2022/09/19 03:17:43;;;;;;;11.48;1.60;;;10.30;99.90;;;;;;5039060;28;20057;-45
2022/09/19 03:20:11;;;;;;;12.85;1.90;;;10.30;99.90;;;;;;5049536;28;20041;-45
2022/09/19 03:22:41;;;;;;;9.77;1.98;;;10.00;99.90;;;;;;5050477;28;20386;-45
2022/09/19 03:25:09;;;;;;;12.73;1.85;;;10.30;99.90;;;;;;5049699;28;20025;-48
2022/09/19 03:27:38;;;;;;;15.45;1.70;;;10.20;99.90;;;;;;5050522;28;20492;-46
2022/09/19 03:30:09;;;;;;;15.55;2.03;;;10.10;99.90;;;;;;5050420;28;20506;-46
2022/09/19 03:32:36;;;;;;;12.77;2.67;;;10.00;99.90;;;;;;5050573;28;20044;-48
2022/09/19 03:35:04;;;;;;;17.00;2.30;;;10.10;99.90;;;;;;5047934;28;20048;-48
2022/09/19 03:37:32;;;;;;;15.98;1.75;;;9.90;99.90;;;;;;5048821;28;20439;-44
2022/09/19 03:39:58;;;;;;;16.30;2.20;;;10.00;99.90;;;;;;5050247;28;20077;-46
2022/09/19 03:42:25;;;;;;;15.15;1.98;;;10.10;99.90;;;;;;5047707;28;20099;-45
2022/09/19 03:44:52;;;;;;;11.73;1.92;;;9.80;99.90;;;;;;5050179;28;20090;-45
2022/09/19 03:47:21;;;;;;;14.77;2.13;;;9.90;99.90;;;;;;5045491;28;20048;-45
2022/09/19 03:49:50;;;;;;;12.77;2.00;;;9.90;99.90;;;;;;5050010;28;20060;-46
2022/09/19 03:52:18;;;;;;;13.20;2.10;;;9.80;99.90;;;;;;5050272;28;20045;-47
2022/09/19 03:54:45;;;;;;;17.35;1.63;;;9.80;99.90;;;;;;5049709;28;20060;-45
2022/09/19 03:57:12;;;;;;;15.85;2.00;;;10.00;99.90;;;;;;5050121;28;20041;-47
2022/09/19 03:59:41;;;;;;;13.82;2.17;;;9.80;99.90;;;;;;5050212;28;20033;-47
2022/09/19 04:02:08;;;;;;;17.00;2.10;;;9.80;99.90;;;;;;5049966;28;20033;-46
2022/09/19 04:04:34;;;;;;;11.93;2.03;;;9.70;99.90;;;;;;5050129;28;20040;-47
2022/09/19 04:07:01;;;;;;;13.98;2.00;;;9.90;99.90;;;;;;5050944;28;20041;-47
2022/09/19 04:09:27;;;;;;;14.55;2.72;;;10.00;99.90;;;;;;5051719;28;20057;-44
2022/09/19 04:11:55;;;;;;;13.23;1.92;;;9.80;99.90;;;;;;5053723;28;20076;-44
2022/09/19 04:14:21;;;;;;;23.15;2.35;;;9.80;99.90;;;;;;5053599;28;20083;-46
2022/09/19 04:16:46;;;;;;;14.07;2.00;;;10.10;99.90;;;;;;5053189;28;20028;-47
2022/09/19 04:19:12;;;;;;;13.98;1.80;;;10.00;99.90;;;;;;5053214;28;20118;-46
2022/09/19 04:21:42;;;;;;;15.27;1.85;;;10.10;99.90;;;;;;5053258;28;20476;-50
2022/09/19 04:24:12;;;;;;;11.57;2.10;;;10.00;99.90;;;;;;5052945;28;20063;-45
2022/09/19 04:26:38;;;;;;;13.32;1.95;;;10.30;99.90;;;;;;5053470;28;20468;-45
2022/09/19 04:29:06;;;;;;;13.70;2.17;;;9.90;99.90;;;;;;5053206;28;20106;-44
2022/09/19 04:31:39;;;;;;;10.93;1.85;;;9.90;99.90;;;;;;5051262;28;20475;-47
2022/09/19 04:34:13;;;;;;;12.35;1.80;;;10.10;99.90;;;;;;5052894;28;20052;-49
2022/09/19 04:36:39;;;;;;;19.02;2.22;;;9.90;99.90;;;;;;5053299;28;20052;-47
2022/09/19 04:39:06;;;;;;;12.02;1.88;;;10.00;99.90;;;;;;5053058;28;20053;-48
2022/09/19 04:41:36;;;;;;;14.20;2.30;;;10.10;99.90;;;;;;5052996;28;20163;-49
2022/09/19 04:44:04;;;;;;;10.48;1.33;;;10.00;99.90;;;;;;5053085;28;20069;-48
2022/09/19 04:46:32;;;;;;;17.13;2.00;;;10.00;99.90;;;;;;5052971;28;20044;-48
2022/09/19 04:48:58;;;;;;;17.17;2.25;;;10.00;99.90;;;;;;5052940;28;20704;-47
2022/09/19 04:51:24;;;;;;;13.75;1.70;;;9.70;99.90;;;;;;5052920;28;20037;-46
2022/09/19 04:53:51;;;;;;;15.32;1.88;;;10.00;99.90;;;;;;5052590;28;20049;-48
2022/09/19 04:56:18;;;;;;;14.55;1.75;;;9.90;99.90;;;;;;5052707;28;20484;-46
2022/09/19 04:58:44;;;;;;;9.73;1.50;;;9.80;99.90;;;;;;5052861;28;20040;-46
2022/09/19 05:01:13;;;;;;;7.53;1.30;;;9.70;99.90;;;;;;5052425;28;20040;-44
2022/09/19 05:03:43;;;;;;;8.57;1.55;;;9.80;99.90;;;;;;5050163;28;20144;-45
2022/09/19 05:06:10;;;;;;;13.88;2.00;;;9.80;99.90;;;;;;5051949;28;20502;-48
2022/09/19 05:08:37;;;;;;;12.60;1.75;;;9.80;99.90;;;;;;5052525;28;20480;-45
2022/09/19 05:11:05;;;;;;;9.43;1.85;;;9.60;99.90;;;;;;5052526;28;20111;-48
2022/09/19 05:13:34;;;;;;;12.32;1.65;;;9.60;99.90;;;;;;5052589;28;20057;-45
2022/09/19 05:16:01;;;;;;;7.20;1.50;;;9.70;99.90;;;;;;5052265;28;20061;-47
2022/09/19 05:18:28;;;;;;;13.02;1.67;;;9.80;99.90;;;;;;5051024;28;20118;-46
2022/09/19 05:20:55;;;;;;;12.52;3.15;;;9.70;99.90;;;;;;5041982;28;20048;-45
2022/09/19 05:23:25;;;;;;;11.35;1.40;;;9.70;99.90;;;;;;5048120;28;20091;-46
2022/09/19 05:25:53;;;;;;;11.73;1.95;;;9.60;99.90;;;;;;5051987;28;20114;-45
2022/09/19 05:28:21;;;;;;;9.43;1.35;;;9.90;99.90;;;;;;5052307;28;20072;-45
2022/09/19 05:30:53;;;;;;;8.50;1.90;;;9.60;99.90;;;;;;5052018;28;20045;-46
2022/09/19 05:33:23;;;;;;;10.55;2.22;;;9.60;99.90;;;;;;5050593;28;20033;-46
2022/09/19 05:35:50;;;;;;;11.00;1.92;;;9.60;99.90;;;;;;5052097;28;20056;-44
2022/09/19 05:38:16;;;;;;;15.27;1.77;;;9.70;99.90;;;;;;5052100;28;20043;-44
2022/09/19 05:40:42;;;;;;;15.70;2.53;;;9.70;99.90;;;;;;5051929;28;20041;-49
2022/09/19 05:43:08;;;;;;;10.88;1.60;;;9.60;99.90;;;;;;5051863;28;20033;-45
2022/09/19 05:45:34;;;;;;;14.98;1.58;;;9.80;99.90;;;;;;5051792;28;20083;-46
2022/09/19 05:48:04;;;;;;;13.70;2.85;;;9.60;99.90;;;;;;5051736;28;20040;-44
2022/09/19 05:50:31;;;;;;;9.38;1.63;;;9.80;99.90;;;;;;5048446;28;20080;-45
2022/09/19 05:55:41;;;;;;;15.93;1.85;;;9.80;99.90;;;;;;5051122;28;20123;-46
2022/09/19 05:58:09;;;;;;;15.73;2.05;;;9.90;99.90;;;;;;5040955;28;20040;-46
2022/09/19 06:00:37;;;;;;;12.93;1.77;;;9.60;99.90;;;;;;5051165;28;20408;-49
2022/09/19 06:03:04;;;;;;;10.13;1.70;;;9.90;99.90;;;;;;5051380;28;20041;-47
2022/09/19 06:05:36;;;;;;;13.95;1.48;;;10.00;99.90;;;;;;5051495;28;20392;-47
2022/09/19 06:08:04;;;;;;;14.35;1.60;;;9.90;99.90;;;;;;5051386;28;20083;-49
2022/09/19 06:10:39;;;;;;;10.90;1.45;;;10.10;99.90;;;;;;5041171;28;20064;-44
2022/09/19 06:13:05;;;;;;;14.23;1.80;;;9.90;99.90;;;;;;5051297;28;20491;-45
2022/09/19 06:15:32;;;;;;;11.75;1.50;;;10.10;99.90;;;;;;5042336;28;20087;-47
2022/09/19 06:17:58;;;;;;;10.07;1.50;;;10.00;99.90;;;;;;5050822;28;20144;-45
2022/09/19 06:20:25;;;;;;;11.68;1.80;;;10.00;99.90;;;;;;5051295;28;20048;-45
2022/09/19 06:23:02;;;;;;;12.82;1.60;;;10.00;99.90;;;;;;5051466;28;21299;-47
2022/09/19 06:25:31;;;;;;;11.30;2.00;;;10.30;99.90;;;;;;5049307;28;20045;-48
2022/09/19 06:28:00;;;;;;;13.73;1.88;;;10.30;99.90;;;;;;5050922;28;20499;-44
2022/09/19 06:30:27;;;;;;;9.55;1.33;;;10.50;99.90;;;;;;5050828;28;20130;-44
2022/09/19 06:32:53;;;;;;;9.20;1.70;;;10.20;99.90;;;;;;5049470;28;20040;-44
2022/09/19 06:35:21;;;;;;;16.85;1.80;;;10.40;99.90;;;;;;5051050;28;20068;-44
2022/09/19 06:37:47;;;;;;;13.98;1.98;;;10.30;99.90;;;;;;5050280;28;20076;-48
2022/09/19 06:40:14;;;;;;;11.20;1.60;;;10.70;99.90;;;;;;5050926;28;20071;-51
2022/09/19 06:42:40;;;;;;;11.77;1.40;;;10.80;99.90;;;;;;5050678;28;20040;-48
2022/09/19 06:45:07;;;;;;;10.50;1.48;;;10.70;99.90;;;;;;5050990;28;20060;-46
2022/09/19 06:47:34;;;;;;;9.18;2.15;;;10.90;99.90;;;;;;5051039;28;20426;-44
2022/09/19 06:50:02;;;;;;;13.18;1.30;;;10.80;99.90;;;;;;5049236;28;20547;-45
2022/09/19 06:52:28;;;;;;;9.98;1.58;;;10.90;99.90;;;;;;5048607;28;20045;-46
2022/09/19 06:54:54;;;;;;;10.15;1.85;;;10.80;99.90;;;;;;5050417;28;20039;-47
2022/09/19 06:57:20;;;;;;;10.48;1.60;;;11.00;99.90;;;;;;5050138;28;20066;-45
2022/09/19 06:59:46;;;;;;;10.45;1.30;;;11.10;99.90;;;;;;5049437;28;20037;-45
2022/09/19 07:02:13;;;;;;;14.13;1.73;;;11.10;99.90;;;;;;5027950;28;20039;-45
2022/09/19 07:04:39;;;;;;;8.18;1.60;;;11.30;99.90;;;;;;5041814;28;20112;-47
2022/09/19 07:07:05;;;;;;;10.13;1.73;;;11.20;99.90;;;;;;5043809;28;20155;-46
2022/09/19 07:09:31;;;;;;;16.58;2.20;;;11.30;99.90;;;;;;5043440;28;20040;-44
2022/09/19 07:11:57;;;;;;;12.70;1.63;;;11.20;99.90;;;;;;5042245;28;20079;-44
2022/09/19 07:14:25;;;;;;;17.63;2.28;;;11.50;99.90;;;;;;5045064;28;20421;-45
2022/09/19 07:16:51;;;;;;;10.50;1.70;;;11.60;99.90;;;;;;5045047;28;20037;-45
2022/09/19 07:19:17;;;;;;;9.70;1.50;;;11.70;99.90;;;;;;5033976;28;20625;-44
2022/09/19 07:21:43;;;;;;;13.73;1.90;;;11.80;99.90;;;;;;5044166;28;20504;-45
2022/09/19 07:24:09;;;;;;;11.45;1.70;;;11.70;99.90;;;;;;5045650;28;20021;-47
2022/09/19 07:26:35;;;;;;;9.00;1.50;;;11.90;99.90;;;;;;5043285;28;20033;-46
2022/09/19 07:29:00;;;;;;;10.88;1.55;;;11.80;99.90;;;;;;5044046;28;20462;-45
2022/09/19 07:31:27;;;;;;;9.50;1.58;;;12.00;99.90;;;;;;5023467;28;20067;-46
2022/09/19 07:33:53;;;;;;;10.05;1.38;;;12.10;99.90;;;;;;5037617;28;20839;-46
2022/09/19 07:36:23;;;;;;;11.25;1.45;;;12.10;99.90;;;;;;5038172;28;20375;-49
2022/09/19 07:38:49;;;;;;;9.95;1.77;;;12.20;99.90;;;;;;5043277;28;20470;-45
2022/09/19 07:41:18;;;;;;;7.35;1.30;;;12.40;99.90;;;;;;5042878;28;20055;-47
2022/09/19 07:43:44;;;;;;;8.45;1.80;;;12.50;99.90;;;;;;5046750;28;20103;-48
2022/09/19 07:46:14;;;;;;;12.05;2.15;;;12.60;99.90;;;;;;5050331;28;20037;-47
2022/09/19 07:48:41;;;;;;;7.43;1.20;;;12.50;99.90;;;;;;5051520;28;20068;-47
2022/09/19 07:51:08;;;;;;;14.63;1.70;;;12.80;99.90;;;;;;5052515;28;20052;-46
2022/09/19 07:53:33;;;;;;;9.20;1.60;;;12.80;99.90;;;;;;5053790;28;20044;-45
2022/09/19 07:56:00;;;;;;;7.95;1.25;;;12.70;99.90;;;;;;5053507;28;20041;-47
2022/09/19 07:58:27;;;;;;;8.85;1.35;;;12.90;99.90;;;;;;5053926;28;20040;-48
2022/09/19 08:00:53;;;;;;;8.93;1.55;;;12.90;99.90;;;;;;5053544;28;20045;-46
2022/09/19 08:03:20;;;;;;;7.90;1.70;;;13.00;99.90;;;;;;5053898;28;20041;-48
2022/09/19 08:05:49;;;;;;;7.65;1.52;;;13.00;99.90;;;;;;5053472;28;20433;-44
2022/09/19 08:08:17;;;;;;;12.02;1.63;;;12.90;99.90;;;;;;5052266;28;20041;-45
2022/09/19 08:10:43;;;;;;;12.45;1.50;;;13.10;99.90;;;;;;5053322;28;20049;-45
2022/09/19 08:13:11;;;;;;;7.97;1.63;;;13.20;99.90;;;;;;5053615;28;20480;-46
2022/09/19 08:15:38;;;;;;;10.98;2.63;;;13.20;99.90;;;;;;5053339;28;20051;-48
2022/09/19 08:18:13;;;;;;;11.20;2.55;;;13.40;99.90;;;;;;5053161;28;20098;-46
2022/09/19 08:20:40;;;;;;;5.28;1.10;;;13.50;99.90;;;;;;5053540;28;20045;-45
2022/09/19 08:23:11;;;;;;;9.18;1.88;;;13.50;99.90;;;;;;5051206;28;20036;-46
2022/09/19 08:25:38;;;;;;;8.00;1.65;;;13.60;99.90;;;;;;5051414;28;20105;-45
2022/09/19 08:28:04;;;;;;;8.52;1.48;;;13.60;99.90;;;;;;5053105;28;20557;-46
2022/09/19 08:30:33;;;;;;;9.05;1.58;;;13.60;99.90;;;;;;5053493;28;20049;-47
2022/09/19 08:33:01;;;;;;;10.23;1.77;;;13.80;99.90;;;;;;5053229;28;20044;-47
2022/09/19 08:35:29;;;;;;;15.13;1.95;;;13.90;99.90;;;;;;5053300;28;20472;-49
2022/09/19 08:38:00;;;;;;;9.68;1.60;;;13.80;99.90;;;;;;5053316;28;20131;-47
2022/09/19 08:40:44;;;;;;;10.00;1.83;;;14.00;99.90;;;;;;5053142;28;20048;-46
2022/09/19 08:43:14;;;;;;;9.33;1.83;;;14.00;99.90;;;;;;5052990;28;20122;-47
2022/09/19 08:46:06;;;;;;;9.60;2.05;;;14.20;99.90;;;;;;5053127;28;20646;-45
2022/09/19 08:49:02;;;;;;;12.13;1.70;;;14.20;99.90;;;;;;5053189;28;20112;-50
2022/09/19 08:51:46;;;;;;;12.20;2.25;;;14.10;99.90;;;;;;5042016;28;20049;-47
2022/09/19 08:54:17;;;;;;;9.98;1.85;;;14.40;99.90;;;;;;5052681;28;20090;-46
2022/09/19 08:56:44;;;;;;;10.43;1.83;;;14.50;99.90;;;;;;5053109;28;20541;-48
2022/09/19 08:59:14;;;;;;;17.00;1.77;;;14.60;99.90;;;;;;5052374;28;20033;-48
2022/09/19 09:01:41;;;;;;;9.88;1.90;;;14.60;99.90;;;;;;5052962;28;20377;-49
2022/09/19 09:04:24;;;;;;;11.45;2.00;;;14.70;99.90;;;;;;5052804;28;20033;-49
2022/09/19 09:07:27;;;;;;;9.90;2.08;;;14.70;99.90;;;;;;5051996;28;20029;-48
2022/09/19 09:09:56;;;;;;;11.75;2.13;;;15.00;99.90;;;;;;5052454;28;20087;-47
2022/09/19 09:12:42;;;;;;;11.93;1.92;;;15.00;99.90;;;;;;5052188;28;20041;-47
2022/09/19 09:15:20;;;;;;;12.23;2.42;;;15.00;99.90;;;;;;5052285;28;20502;-47
2022/09/19 09:18:18;;;;;;;11.35;1.98;;;15.20;99.90;;;;;;5051939;28;20076;-48
2022/09/19 09:21:16;;;;;;;8.82;1.77;;;15.30;99.90;;;;;;5045348;28;20400;-48
2022/09/19 09:23:46;;;;;;;12.40;1.98;;;15.50;99.90;;;;;;5051077;28;20406;-50
2022/09/19 09:26:21;;;;;;;11.70;2.00;;;15.60;99.90;;;;;;5051252;28;20071;-46
2022/09/19 09:28:59;;;;;;;10.73;1.60;;;15.70;99.90;;;;;;5051152;28;20036;-45
2022/09/19 09:31:29;;;;;;;9.15;1.67;;;15.70;99.90;;;;;;5050661;28;20739;-49
2022/09/19 09:34:03;;;;;;;8.82;1.45;;;15.80;99.90;;;;;;5050756;28;20045;-47
2022/09/19 09:36:36;;;;;;;8.80;1.27;;;15.90;99.90;;;;;;5050649;28;20083;-47
2022/09/19 09:39:12;;;;;;;8.95;1.70;;;16.10;99.90;;;;;;5050776;28;20033;-48
2022/09/19 09:41:50;;;;;;;9.70;1.70;;;16.40;99.90;;;;;;5046878;28;20083;-48
2022/09/19 09:44:23;;;;;;;15.32;2.65;;;16.00;99.90;;;;;;5050128;28;20113;-49
2022/09/19 09:47:04;;;;;;;9.20;1.55;;;16.40;99.90;;;;;;5050272;28;20051;-51
2022/09/19 09:49:30;;;;;;;8.93;1.75;;;16.20;99.90;;;;;;5040380;28;20049;-50
2022/09/19 09:52:13;;;;;;;9.55;1.83;;;16.30;99.90;;;;;;5045033;28;20036;-46
2022/09/19 09:58:02;;;;;;;9.43;2.00;;;16.30;99.90;;;;;;5045845;28;20123;-46
2022/09/19 10:03:49;;;;;;;7.30;1.83;;;15.70;99.90;;;;;;5043155;28;20427;-50
2022/09/19 10:06:33;;;;;;;6.93;1.40;;;14.60;99.90;;;;;;5032735;28;20041;-48
2022/09/19 10:09:08;;;;;;;7.47;1.33;;;13.40;99.90;;;;;;5044235;28;20423;-47
2022/09/19 10:11:56;;;;;;;8.30;1.20;;;13.30;99.90;;;;;;5028548;28;20068;-47
2022/09/19 10:14:28;;;;;;;6.72;1.30;;;13.20;99.90;;;;;;5045460;28;20106;-47
2022/09/19 10:16:59;;;;;;;10.10;1.60;;;13.40;99.90;;;;;;5044648;28;20037;-49
2022/09/19 10:19:42;;;;;;;15.23;2.42;;;13.50;99.90;;;;;;5005621;28;1080839;-46
2022/09/19 10:22:14;;;;;;;9.30;1.85;;;13.90;99.90;;;;;;5041269;28;20055;-44
2022/09/19 10:24:55;;;;;;;13.32;2.63;;;13.80;99.90;;;;;;5042041;28;20044;-43
2022/09/19 10:27:25;;;;;;;7.40;1.70;;;13.50;99.90;;;;;;5049305;28;20032;-44
2022/09/19 10:30:19;;;;;;;9.35;1.50;;;13.20;99.90;;;;;;5048331;28;20037;-45
2022/09/19 10:32:47;;;;;;;8.43;1.60;;;13.20;99.90;;;;;;5046779;28;20487;-44
2022/09/19 10:35:21;;;;;;;8.30;1.60;;;13.20;99.90;;;;;;5044729;28;20045;-44
2022/09/19 10:38:01;;;;;;;8.10;1.50;;;13.10;99.90;;;;;;5043669;28;20067;-45
2022/09/19 10:40:30;;;;;;;8.82;1.48;;;13.50;99.90;;;;;;5031978;28;20045;-45
2022/09/19 10:42:57;;;;;;;7.22;1.55;;;13.80;99.90;;;;;;5050938;28;20041;-45
2022/09/19 10:45:32;;;;;;;10.15;1.77;;;14.00;99.90;;;;;;5050887;28;20107;-46
2022/09/19 10:48:21;;;;;;;15.48;1.90;;;14.30;99.90;;;;;;5049537;28;20488;-47
2022/09/19 10:50:48;;;;;;;8.80;1.77;;;14.40;99.90;;;;;;5050845;28;20411;-45
2022/09/19 10:53:22;;;;;;;11.35;1.80;;;14.20;99.90;;;;;;5048913;28;20049;-46
2022/09/19 10:55:48;;;;;;;10.48;1.75;;;13.80;99.90;;;;;;5048544;28;20039;-44
2022/09/19 10:58:22;;;;;;;9.27;1.70;;;14.10;99.90;;;;;;5015865;28;20381;-45
2022/09/19 11:01:01;;;;;;;6.07;1.38;;;13.90;99.90;;;;;;5046657;28;20045;-45
2022/09/19 11:03:32;;;;;;;8.68;1.63;;;14.10;99.90;;;;;;5027139;28;20052;-48
2022/09/19 11:06:03;;;;;;;7.40;1.73;;;14.30;99.90;;;;;;5041146;28;20127;-46
2022/09/19 11:08:30;;;;;;;7.32;1.38;;;14.20;99.90;;;;;;5040654;28;20068;-46
2022/09/19 11:10:56;;;;;;;13.23;2.10;;;13.70;99.90;;;;;;5041560;28;20962;-45
2022/09/19 11:13:22;;;;;;;7.68;1.45;;;13.50;99.90;;;;;;5043502;28;20403;-46
2022/09/19 11:16:09;;;;;;;7.60;1.55;;;13.70;99.90;;;;;;5044567;28;20049;-45
2022/09/19 11:18:53;;;;;;;6.40;1.52;;;13.50;99.90;;;;;;5044295;28;20060;-44
2022/09/19 11:21:35;;;;;;;5.10;0.82;;;13.50;99.90;;;;;;5043955;28;20619;-44
2022/09/19 11:24:18;;;;;;;6.00;1.17;;;13.60;99.90;;;;;;5044587;28;20048;-44
2022/09/19 11:27:02;;;;;;;5.90;1.15;;;13.70;99.90;;;;;;5050134;28;20190;-48
2022/09/19 11:29:46;;;;;;;5.30;1.10;;;13.80;99.90;;;;;;5047874;28;20037;-44
2022/09/19 11:32:17;;;;;;;6.07;1.40;;;13.90;99.90;;;;;;5046479;28;20399;-46
2022/09/19 11:35:00;;;;;;;6.07;1.30;;;14.20;99.90;;;;;;5044024;28;20051;-44
2022/09/19 11:37:44;;;;;;;5.40;1.13;;;14.30;99.90;;;;;;5044054;28;20457;-45
2022/09/19 11:40:34;;;;;;;9.38;1.65;;;14.10;99.90;;;;;;5050072;28;20048;-47
2022/09/19 11:43:21;;;;;;;7.40;1.30;;;13.70;99.90;;;;;;5051600;28;20041;-45
2022/09/19 11:46:11;;;;;;;8.27;1.45;;;13.30;99.90;;;;;;5048289;28;20037;-46
2022/09/19 11:48:58;;;;;;;5.22;1.38;;;13.20;99.90;;;;;;5046738;28;20418;-46
2022/09/19 11:51:26;;;;;;;5.53;1.10;;;13.10;99.90;;;;;;5002193;28;20056;-47
2022/09/19 11:54:14;;;;;;;7.07;1.27;;;13.00;99.90;;;;;;5054212;28;20083;-45
2022/09/19 11:56:54;;;;;;;5.80;0.90;;;13.00;99.90;;;;;;5053504;28;20045;-46
2022/09/19 11:59:35;;;;;;;5.28;1.08;;;13.20;99.90;;;;;;5053991;28;20538;-45
2022/09/19 12:02:28;;;;;;;7.90;1.20;;;13.40;99.90;;;;;;5053613;28;20041;-45
2022/09/19 12:05:34;;;;;;;7.40;1.45;;;13.90;99.90;;;;;;5053928;28;20532;-44
2022/09/19 12:08:25;;;;;;;6.47;1.35;;;14.30;99.90;;;;;;5012565;28;20049;-45
2022/09/19 12:10:59;;;;;;;6.85;1.25;;;14.80;99.90;;;;;;5052928;28;20049;-45
2022/09/19 12:13:33;;;;;;;7.90;1.70;;;15.40;99.90;;;;;;5053480;28;20051;-44
2022/09/19 12:16:04;;;;;;;9.68;1.50;;;15.80;99.90;;;;;;5053435;28;20083;-45
2022/09/19 12:18:45;;;;;;;9.35;1.52;;;16.20;99.90;;;;;;5053286;28;20084;-45
2022/09/19 12:21:12;;;;;;;9.20;1.75;;;16.70;99.90;;;;;;5053373;28;20048;-46
2022/09/19 12:26:53;;;;;;;7.97;1.67;;;15.70;99.90;;;;;;5052204;28;20387;-43
2022/09/19 12:29:39;;;;;;;9.35;1.88;;;15.50;99.90;;;;;;5052871;28;20044;-43
2022/09/19 12:32:17;;;;;;;8.73;1.83;;;15.40;99.90;;;;;;5053528;28;20064;-44
2022/09/19 12:34:51;;;;;;;7.80;1.92;;;15.40;99.90;;;;;;5053122;28;20043;-48
2022/09/19 12:37:35;;;;;;;6.50;1.58;;;15.80;99.90;;;;;;5051451;28;20040;-46
2022/09/19 12:40:30;;;;;;;10.10;2.03;;;16.40;99.90;;;;;;5053194;28;20033;-44
2022/09/19 12:43:18;;;;;;;8.52;1.80;;;16.70;99.90;;;;;;5053286;28;20388;-44
2022/09/19 12:45:53;;;;;;;8.30;1.58;;;17.00;99.90;;;;;;5052871;28;20541;-47
2022/09/19 12:48:47;;;;;;;6.50;1.35;;;17.50;99.90;;;;;;5053249;28;20424;-45
2022/09/19 12:51:28;;;;;;;7.05;1.48;;;17.40;99.90;;;;;;5053225;28;20502;-45
2022/09/19 12:54:04;;;;;;;10.55;1.70;;;17.70;99.90;;;;;;5052981;28;20044;-44
2022/09/19 12:56:40;;;;;;;6.63;1.27;;;18.20;99.90;;;;;;5052828;28;20041;-46
2022/09/19 12:59:36;;;;;;;6.55;1.40;;;17.90;99.90;;;;;;5052698;28;20044;-45
2022/09/19 13:02:12;;;;;;;9.30;1.65;;;17.70;99.90;;;;;;5035518;28;20115;-45
2022/09/19 13:04:52;;;;;;;8.65;1.63;;;17.50;99.90;;;;;;5051509;28;20138;-49
2022/09/19 13:07:31;;;;;;;8.85;1.52;;;17.60;99.90;;;;;;5052519;28;20095;-47
2022/09/19 13:10:00;;;;;;;10.35;1.83;;;17.70;99.90;;;;;;5052637;28;20080;-46
2022/09/19 13:12:37;;;;;;;9.55;1.70;;;17.80;99.90;;;;;;5052721;28;20083;-45
2022/09/19 13:15:21;;;;;;;13.70;2.20;;;17.40;99.90;;;;;;5052696;28;20033;-47
2022/09/19 13:23:30;;;;;;;11.20;1.85;;;16.50;99.90;;;;;;5052565;28;20044;-46
2022/09/19 13:26:01;;;;;;;9.85;1.73;;;16.30;99.90;;;;;;5052349;28;20558;-44
2022/09/19 13:28:34;;;;;;;9.85;1.67;;;16.30;99.90;;;;;;5052344;28;20098;-46
2022/09/19 13:31:05;;;;;;;9.73;1.90;;;16.30;99.90;;;;;;5052414;28;20566;-45